createdAt,value
2023-04-22T00:01:01.741Z,87.46
2023-04-22T00:03:28.578Z,87.58
2023-04-22T00:05:55.199Z,87.44
2023-04-22T00:08:21.653Z,87.37
2023-04-22T00:10:48.057Z,87.33
2023-04-22T00:13:14.433Z,87.18
2023-04-22T00:15:40.869Z,87.25
2023-04-22T00:18:07.359Z,87.22
2023-04-22T00:20:33.807Z,87.21
2023-04-22T00:23:00.216Z,87.31
2023-04-22T00:25:26.597Z,87.32
2023-04-22T00:27:53.013Z,87.01
2023-04-22T00:30:19.389Z,87.05
2023-04-22T00:32:45.817Z,87.22
2023-04-22T00:35:12.302Z,87.24
2023-04-22T00:37:38.722Z,87.09
2023-04-22T00:40:05.105Z,87.05
2023-04-22T00:42:34.462Z,87.00
2023-04-22T00:45:00.857Z,87.00
2023-04-22T00:47:27.274Z,87.04
2023-04-22T00:49:53.938Z,86.94
2023-04-22T00:52:20.576Z,86.99
2023-04-22T00:54:46.999Z,87.15
2023-04-22T00:57:13.386Z,87.02
2023-04-22T00:59:40.245Z,86.98
2023-04-22T01:02:07.028Z,87.06
2023-04-22T01:04:33.764Z,86.89
2023-04-22T01:07:00.162Z,87.06
2023-04-22T01:09:26.776Z,86.88
2023-04-22T01:11:53.355Z,86.52
2023-04-22T01:14:19.712Z,86.90
2023-04-22T01:16:46.093Z,87.01
2023-04-22T01:19:12.669Z,87.00
2023-04-22T01:21:39.048Z,86.56
2023-04-22T01:24:05.412Z,87.31
2023-04-22T01:26:31.978Z,86.94
2023-04-22T01:28:58.311Z,86.43
2023-04-22T01:31:24.707Z,86.47
2023-04-22T01:33:51.417Z,86.57
2023-04-22T01:36:17.987Z,86.73
2023-04-22T01:38:44.346Z,87.60
2023-04-22T01:41:10.724Z,86.73
2023-04-22T01:43:37.091Z,86.67
2023-04-22T01:46:03.698Z,86.33
2023-04-22T01:48:30.097Z,87.06
2023-04-22T01:50:56.439Z,87.07
2023-04-22T01:53:22.799Z,86.34
2023-04-22T01:55:49.140Z,87.02
2023-04-22T01:58:15.508Z,87.53
2023-04-22T02:00:42.078Z,87.16
2023-04-22T02:03:08.490Z,87.23
2023-04-22T02:05:34.946Z,87.99
2023-04-22T02:08:01.294Z,87.44
2023-04-22T02:10:27.666Z,87.26
2023-04-22T02:12:54.025Z,87.53
2023-04-22T02:15:20.366Z,87.51
2023-04-22T02:17:46.710Z,87.84
2023-04-22T02:20:13.127Z,87.33
2023-04-22T02:22:39.502Z,88.08
2023-04-22T02:25:06.058Z,87.22
2023-04-22T02:27:32.455Z,88.96
2023-04-22T02:29:59.011Z,88.35
2023-04-22T02:32:25.432Z,88.50
2023-04-22T02:34:52.014Z,88.40
2023-04-22T02:37:18.370Z,88.09
2023-04-22T02:39:44.942Z,88.06
2023-04-22T02:42:11.490Z,88.41
2023-04-22T02:44:38.284Z,87.92
2023-04-22T02:47:04.649Z,88.45
2023-04-22T02:49:31.240Z,88.74
2023-04-22T02:51:57.825Z,88.64
2023-04-22T02:54:24.380Z,88.17
2023-04-22T02:56:50.740Z,88.43
2023-04-22T02:59:17.298Z,89.12
2023-04-22T03:01:43.873Z,88.92
2023-04-22T03:04:10.513Z,88.65
2023-04-22T03:06:37.196Z,88.94
2023-04-22T03:09:03.759Z,89.17
2023-04-22T03:11:30.130Z,89.12
2023-04-22T03:13:56.489Z,88.73
2023-04-22T03:16:23.140Z,88.71
2023-04-22T03:18:49.739Z,89.40
2023-04-22T03:21:16.311Z,88.76
2023-04-22T03:23:42.676Z,88.61
2023-04-22T03:26:09.238Z,88.84
2023-04-22T03:28:35.783Z,89.37
2023-04-22T03:31:02.142Z,89.23
2023-04-22T03:33:28.509Z,89.26
2023-04-22T03:35:54.852Z,89.66
2023-04-22T03:38:21.206Z,89.69
2023-04-22T03:40:47.566Z,89.64
2023-04-22T03:43:13.930Z,89.62
2023-04-22T03:45:40.526Z,89.67
2023-04-22T03:48:06.926Z,89.66
2023-04-22T03:50:33.541Z,89.53
2023-04-22T03:53:00.109Z,89.59
2023-04-22T03:55:26.470Z,89.41
2023-04-22T03:57:52.830Z,89.61
2023-04-22T04:00:19.486Z,89.61
2023-04-22T04:02:45.968Z,89.31
2023-04-22T04:05:12.629Z,89.09
2023-04-22T04:07:39.056Z,89.13
2023-04-22T04:10:05.413Z,88.96
2023-04-22T04:12:31.775Z,89.01
2023-04-22T04:14:58.117Z,88.77
2023-04-22T04:17:24.700Z,88.63
2023-04-22T04:19:51.067Z,88.55
2023-04-22T04:22:17.422Z,88.24
2023-04-22T04:24:44.003Z,88.38
2023-04-22T04:27:10.341Z,88.22
2023-04-22T04:29:36.678Z,88.11
2023-04-22T04:32:03.071Z,88.12
2023-04-22T04:34:29.436Z,88.10
2023-04-22T04:36:55.835Z,87.80
2023-04-22T04:39:22.200Z,88.01
2023-04-22T04:41:48.560Z,87.77
2023-04-22T04:44:14.916Z,87.72
2023-04-22T04:46:41.390Z,87.60
2023-04-22T04:49:08.090Z,87.57
2023-04-22T04:51:34.661Z,87.32
2023-04-22T04:54:01.038Z,87.07
2023-04-22T04:56:27.400Z,87.38
2023-04-22T04:58:53.757Z,87.19
2023-04-22T05:01:20.415Z,87.16
2023-04-22T05:03:46.927Z,87.11
2023-04-22T05:06:13.580Z,87.22
2023-04-22T05:08:39.915Z,87.17
2023-04-22T05:11:06.494Z,87.08
2023-04-22T05:13:32.838Z,86.74
2023-04-22T05:15:59.210Z,86.70
2023-04-22T05:18:25.586Z,86.94
2023-04-22T05:20:51.938Z,86.68
2023-04-22T05:23:18.320Z,87.05
2023-04-22T05:25:44.662Z,87.17
2023-04-22T05:28:11.022Z,86.91
2023-04-22T05:30:37.366Z,86.83
2023-04-22T05:33:03.761Z,86.46
2023-04-22T05:35:30.157Z,86.18
2023-04-22T05:37:59.505Z,86.29
2023-04-22T05:40:26.068Z,86.11
2023-04-22T05:42:52.644Z,86.34
2023-04-22T05:45:19.004Z,85.96
2023-04-22T05:47:45.619Z,86.14
2023-04-22T05:50:12.272Z,85.98
2023-04-22T05:52:38.857Z,86.01
2023-04-22T05:55:05.218Z,86.07
2023-04-22T05:57:31.568Z,86.10
2023-04-22T05:59:57.911Z,85.85
2023-04-22T06:02:24.386Z,85.77
2023-04-22T06:04:51.072Z,85.73
2023-04-22T06:07:17.922Z,85.89
2023-04-22T06:09:44.272Z,85.87
2023-04-22T06:12:10.845Z,85.54
2023-04-22T06:14:37.397Z,86.25
2023-04-22T06:17:04.247Z,86.19
2023-04-22T06:19:30.596Z,86.38
2023-04-22T06:21:57.157Z,86.33
2023-04-22T06:24:23.533Z,86.16
2023-04-22T06:26:49.906Z,86.14
2023-04-22T06:29:16.260Z,85.85
2023-04-22T06:31:42.735Z,85.91
2023-04-22T06:34:09.174Z,85.84
2023-04-22T06:36:35.524Z,85.92
2023-04-22T06:39:01.888Z,85.95
2023-04-22T06:41:28.249Z,86.08
2023-04-22T06:43:54.621Z,86.03
2023-04-22T06:46:21.045Z,85.96
2023-04-22T06:48:47.664Z,86.43
2023-04-22T06:51:14.010Z,86.31
2023-04-22T06:53:40.364Z,86.89
2023-04-22T06:56:06.711Z,86.95
2023-04-22T06:58:33.264Z,86.85
2023-04-22T07:00:59.617Z,86.88
2023-04-22T07:03:26.214Z,87.67
2023-04-22T07:05:52.799Z,87.42
2023-04-22T07:08:19.149Z,87.40
2023-04-22T07:10:45.694Z,87.49
2023-04-22T07:13:12.090Z,87.37
2023-04-22T07:15:38.666Z,87.17
2023-04-22T07:18:05.057Z,86.92
2023-04-22T07:20:31.635Z,87.22
2023-04-22T07:22:57.985Z,86.80
2023-04-22T07:25:24.329Z,86.51
2023-04-22T07:27:50.682Z,86.47
2023-04-22T07:30:17.257Z,86.17
2023-04-22T07:32:43.660Z,85.99
2023-04-22T07:35:10.251Z,85.89
2023-04-22T07:37:36.591Z,86.02
2023-04-22T07:40:03.468Z,85.60
2023-04-22T07:42:29.812Z,85.80
2023-04-22T07:44:57.116Z,85.74
2023-04-22T07:47:23.465Z,85.88
2023-04-22T07:49:50.037Z,85.82
2023-04-22T07:52:16.395Z,85.57
2023-04-22T07:54:42.765Z,85.57
2023-04-22T07:57:09.117Z,85.41
2023-04-22T07:59:36.138Z,85.19
2023-04-22T08:02:02.578Z,85.27
2023-04-22T08:04:29.210Z,85.05
2023-04-22T08:06:55.779Z,85.14
2023-04-22T08:09:22.324Z,84.97
2023-04-22T08:11:48.882Z,84.91
2023-04-22T08:14:15.461Z,84.97
2023-04-22T08:16:41.844Z,85.14
2023-04-22T08:19:08.195Z,85.36
2023-04-22T08:21:34.760Z,84.84
2023-04-22T08:24:01.320Z,85.00
2023-04-22T08:26:27.676Z,84.73
2023-04-22T08:28:54.012Z,84.86
2023-04-22T08:31:20.426Z,84.74
2023-04-22T08:33:46.808Z,84.86
2023-04-22T08:36:13.163Z,84.72
2023-04-22T08:38:39.738Z,85.02
2023-04-22T08:41:06.110Z,85.13
2023-04-22T08:43:32.699Z,85.28
2023-04-22T08:45:59.051Z,85.75
2023-04-22T08:48:25.390Z,85.38
2023-04-22T08:50:51.950Z,85.75
2023-04-22T08:53:18.311Z,86.10
2023-04-22T08:55:44.680Z,86.33
2023-04-22T08:58:11.040Z,86.15
2023-04-22T09:00:37.384Z,86.46
2023-04-22T09:03:03.876Z,86.68
2023-04-22T09:05:30.299Z,86.71
2023-04-22T09:07:57.086Z,86.54
2023-04-22T09:10:23.445Z,86.44
2023-04-22T09:12:49.796Z,86.65
2023-04-22T09:15:16.149Z,86.46
2023-04-22T09:17:43.262Z,87.03
2023-04-22T09:20:09.831Z,87.20
2023-04-22T09:22:36.414Z,87.12
2023-04-22T09:25:02.765Z,87.33
2023-04-22T09:27:29.183Z,87.21
2023-04-22T09:29:55.534Z,87.15
2023-04-22T09:32:21.905Z,86.26
2023-04-22T09:34:48.363Z,86.87
2023-04-22T09:37:14.710Z,87.09
2023-04-22T09:39:41.240Z,86.98
2023-04-22T09:42:07.653Z,86.92
2023-04-22T09:44:34.018Z,87.03
2023-04-22T09:47:00.353Z,87.46
2023-04-22T09:49:26.707Z,87.15
2023-04-22T09:51:53.062Z,87.00
2023-04-22T09:54:19.410Z,87.15
2023-04-22T09:56:45.971Z,87.57
2023-04-22T09:59:12.330Z,86.65
2023-04-22T10:01:39.017Z,85.51
2023-04-22T10:04:05.478Z,85.71
2023-04-22T10:06:31.862Z,85.80
2023-04-22T10:08:58.241Z,85.60
2023-04-22T10:11:24.648Z,85.79
2023-04-22T10:13:51.002Z,86.02
2023-04-22T10:16:17.411Z,86.22
2023-04-22T10:18:43.768Z,85.91
2023-04-22T10:21:10.169Z,85.65
2023-04-22T10:23:36.516Z,86.03
2023-04-22T10:26:02.858Z,86.13
2023-04-22T10:28:29.216Z,86.11
2023-04-22T10:30:55.620Z,86.14
2023-04-22T10:33:22.043Z,86.42
2023-04-22T10:35:48.397Z,86.10
2023-04-22T10:38:14.746Z,86.06
2023-04-22T10:40:41.088Z,86.10
2023-04-22T10:43:07.498Z,86.29
2023-04-22T10:45:34.071Z,86.36
2023-04-22T10:48:00.416Z,86.43
2023-04-22T10:50:26.981Z,86.42
2023-04-22T10:52:53.567Z,86.12
2023-04-22T10:55:19.945Z,86.11
2023-04-22T10:57:46.323Z,86.24
2023-04-22T11:00:12.674Z,86.36
2023-04-22T11:02:39.099Z,86.05
2023-04-22T11:05:05.506Z,86.17
2023-04-22T11:07:31.857Z,86.21
2023-04-22T11:09:58.453Z,86.12
2023-04-22T11:12:25.226Z,86.06
2023-04-22T11:14:51.573Z,85.98
2023-04-22T11:17:17.917Z,85.97
2023-04-22T11:19:44.252Z,86.01
2023-04-22T11:22:10.596Z,85.86
2023-04-22T11:24:37.159Z,85.86
2023-04-22T11:27:03.721Z,85.89
2023-04-22T11:29:30.082Z,86.05
2023-04-22T11:31:56.529Z,86.16
2023-04-22T11:34:22.978Z,86.17
2023-04-22T11:36:49.327Z,86.17
2023-04-22T11:39:15.673Z,86.08
2023-04-22T11:41:42.028Z,85.95
2023-04-22T11:44:08.368Z,86.00
2023-04-22T11:46:34.847Z,86.09
2023-04-22T11:49:01.319Z,86.10
2023-04-22T11:51:27.681Z,86.19
2023-04-22T11:53:54.029Z,86.21
2023-04-22T11:56:20.375Z,86.33
2023-04-22T11:58:46.949Z,86.11
2023-04-22T12:01:13.292Z,86.18
2023-04-22T12:03:40.047Z,86.41
2023-04-22T12:06:06.701Z,86.06
2023-04-22T12:08:33.079Z,86.15
2023-04-22T12:10:59.446Z,86.43
2023-04-22T12:13:26.018Z,86.33
2023-04-22T12:15:52.353Z,86.31
2023-04-22T12:18:18.700Z,86.21
2023-04-22T12:20:45.045Z,86.29
2023-04-22T12:23:11.394Z,86.37
2023-04-22T12:25:37.743Z,86.43
2023-04-22T12:28:04.297Z,86.51
2023-04-22T12:30:30.634Z,86.59
2023-04-22T12:32:57.000Z,86.58
2023-04-22T12:35:23.365Z,86.59
2023-04-22T12:37:50.710Z,86.65
2023-04-22T12:40:18.275Z,86.59
2023-04-22T12:42:44.640Z,86.65
2023-04-22T12:45:10.988Z,86.75
2023-04-22T12:47:37.475Z,86.86
2023-04-22T12:50:03.847Z,87.01
2023-04-22T12:52:30.407Z,87.21
2023-04-22T12:54:56.770Z,87.33
2023-04-22T12:57:23.377Z,87.43
2023-04-22T12:59:49.733Z,87.41
2023-04-22T13:02:16.468Z,87.61
2023-04-22T13:04:42.956Z,87.58
2023-04-22T13:07:09.358Z,87.70
2023-04-22T13:09:35.929Z,87.85
2023-04-22T13:12:02.292Z,88.12
2023-04-22T13:14:28.886Z,88.23
2023-04-22T13:16:55.242Z,88.35
2023-04-22T13:19:21.596Z,88.41
2023-04-22T13:21:47.957Z,88.45
2023-04-22T13:24:14.329Z,88.45
2023-04-22T13:26:40.691Z,88.49
2023-04-22T13:29:07.038Z,88.57
2023-04-22T13:31:33.425Z,88.59
2023-04-22T13:33:59.794Z,88.64
2023-04-22T13:36:26.140Z,88.50
2023-04-22T13:38:52.505Z,88.64
2023-04-22T13:41:18.875Z,88.66
2023-04-22T13:43:45.230Z,88.77
2023-04-22T13:46:11.636Z,88.80
2023-04-22T13:48:38.021Z,88.76
2023-04-22T13:51:04.374Z,88.72
2023-04-22T13:53:31.528Z,88.84
2023-04-22T13:55:59.327Z,89.07
2023-04-22T13:58:25.692Z,89.00
2023-04-22T14:00:52.083Z,89.11
2023-04-22T14:03:18.615Z,89.09
2023-04-22T14:05:45.148Z,88.96
2023-04-22T14:08:11.497Z,88.77
2023-04-22T14:10:37.830Z,88.01
2023-04-22T14:13:04.182Z,88.00
2023-04-22T14:15:30.546Z,87.46
2023-04-22T14:17:57.292Z,87.52
2023-04-22T14:20:23.722Z,87.59
2023-04-22T14:22:50.073Z,87.41
2023-04-22T14:25:16.427Z,87.38
2023-04-22T14:27:42.803Z,87.34
2023-04-22T14:30:09.153Z,87.33
2023-04-22T14:32:35.525Z,87.39
2023-04-22T14:35:01.889Z,87.51
2023-04-22T14:37:28.296Z,87.83
2023-04-22T14:39:54.667Z,88.07
2023-04-22T14:42:21.022Z,87.84
2023-04-22T14:44:47.386Z,88.17
2023-04-22T14:47:13.762Z,88.16
2023-04-22T14:49:40.657Z,88.01
2023-04-22T14:52:07.299Z,87.85
2023-04-22T14:54:33.659Z,87.87
2023-04-22T14:57:00.014Z,87.64
2023-04-22T14:59:26.348Z,87.56
2023-04-22T15:01:52.954Z,87.54
2023-04-22T15:04:19.541Z,87.47
2023-04-22T15:06:46.041Z,87.46
2023-04-22T15:09:12.419Z,87.30
2023-04-22T15:11:38.773Z,87.34
2023-04-22T15:14:05.123Z,87.29
2023-04-22T15:16:31.600Z,87.23
2023-04-22T15:18:57.949Z,87.21
2023-04-22T15:21:24.306Z,87.17
2023-04-22T15:23:50.670Z,87.18
2023-04-22T15:26:17.018Z,87.19
2023-04-22T15:28:43.370Z,87.26
2023-04-22T15:31:09.755Z,87.28
2023-04-22T15:33:36.133Z,87.35
2023-04-22T15:36:02.503Z,87.36
2023-04-22T15:38:28.854Z,87.37
2023-04-22T15:40:55.208Z,87.40
2023-04-22T15:43:21.549Z,87.44
2023-04-22T15:45:47.915Z,87.38
2023-04-22T15:48:14.256Z,87.34
2023-04-22T15:50:41.302Z,87.37
2023-04-22T15:53:07.655Z,87.49
2023-04-22T15:55:34.029Z,87.52
2023-04-22T15:58:00.385Z,87.65
2023-04-22T16:00:26.740Z,87.87
2023-04-22T16:02:53.285Z,87.22
2023-04-22T16:05:19.721Z,87.71
2023-04-22T16:07:46.062Z,87.21
2023-04-22T16:10:12.411Z,87.24
2023-04-22T16:12:38.766Z,87.01
2023-04-22T16:15:05.099Z,87.04
2023-04-22T16:17:31.480Z,86.85
2023-04-22T16:19:57.918Z,86.86
2023-04-22T16:22:24.286Z,86.94
2023-04-22T16:24:50.645Z,86.86
2023-04-22T16:27:17.373Z,87.02
2023-04-22T16:29:43.857Z,86.96
2023-04-22T16:32:10.283Z,86.92
2023-04-22T16:34:36.785Z,87.08
2023-04-22T16:37:03.146Z,87.04
2023-04-22T16:39:29.523Z,87.02
2023-04-22T16:41:55.885Z,86.97
2023-04-22T16:44:22.244Z,86.97
2023-04-22T16:46:48.826Z,87.06
2023-04-22T16:49:15.396Z,87.05
2023-04-22T16:51:41.758Z,87.01
2023-04-22T16:54:08.321Z,87.07
2023-04-22T16:56:34.884Z,87.11
2023-04-22T16:59:01.223Z,87.14
2023-04-22T17:01:27.809Z,87.20
2023-04-22T17:03:54.513Z,87.22
2023-04-22T17:06:21.271Z,87.24
2023-04-22T17:08:47.610Z,87.27
2023-04-22T17:11:13.958Z,87.30
2023-04-22T17:13:40.330Z,87.37
2023-04-22T17:16:06.965Z,87.46
2023-04-22T17:18:33.327Z,87.44
2023-04-22T17:20:59.670Z,87.38
2023-04-22T17:23:26.021Z,87.43
2023-04-22T17:25:52.587Z,87.40
2023-04-22T17:28:19.173Z,87.43
2023-04-22T17:30:45.520Z,87.46
2023-04-22T17:33:11.871Z,87.46
2023-04-22T17:35:38.222Z,87.47
2023-04-22T17:38:04.601Z,87.43
2023-04-22T17:40:31.160Z,87.51
2023-04-22T17:42:57.499Z,87.48
2023-04-22T17:45:24.055Z,87.49
2023-04-22T17:47:50.453Z,87.52
2023-04-22T17:50:16.817Z,87.47
2023-04-22T17:52:43.163Z,87.51
2023-04-22T17:55:09.519Z,87.54
2023-04-22T17:57:36.103Z,87.54
2023-04-22T18:00:02.466Z,87.54
2023-04-22T18:02:28.927Z,87.54
2023-04-22T18:04:55.360Z,87.59
2023-04-22T18:07:21.720Z,87.62
2023-04-22T18:09:48.310Z,87.58
2023-04-22T18:12:14.684Z,87.55
2023-04-22T18:14:41.045Z,87.55
2023-04-22T18:17:07.408Z,87.59
2023-04-22T18:19:33.750Z,87.64
2023-04-22T18:22:00.683Z,87.58
2023-04-22T18:24:27.180Z,87.62
2023-04-22T18:26:53.741Z,87.57
2023-04-22T18:29:20.091Z,87.59
2023-04-22T18:31:46.463Z,87.67
2023-04-22T18:34:12.824Z,87.69
2023-04-22T18:36:39.192Z,87.68
2023-04-22T18:39:05.780Z,87.68
2023-04-22T18:41:32.160Z,87.66
2023-04-22T18:43:58.499Z,87.62
2023-04-22T18:46:24.964Z,87.61
2023-04-22T18:48:51.326Z,87.63
2023-04-22T18:51:17.684Z,87.59
2023-04-22T18:53:44.031Z,87.60
2023-04-22T18:56:10.625Z,87.61
2023-04-22T18:58:36.976Z,87.61
2023-04-22T19:01:03.356Z,87.64
2023-04-22T19:03:29.809Z,87.56
2023-04-22T19:05:56.262Z,87.65
2023-04-22T19:08:22.711Z,87.67
2023-04-22T19:10:49.055Z,87.60
2023-04-22T19:13:28.500Z,87.64
2023-04-22T19:15:55.838Z,87.63
2023-04-22T19:18:22.465Z,87.62
2023-04-22T19:20:48.817Z,87.64
2023-04-22T19:23:15.179Z,87.70
2023-04-22T19:25:41.548Z,87.66
2023-04-22T19:28:07.897Z,87.62
2023-04-22T19:30:34.236Z,87.68
2023-04-22T19:33:00.644Z,87.68
2023-04-22T19:35:27.030Z,87.68
2023-04-22T19:37:53.384Z,87.66
2023-04-22T19:40:19.937Z,87.69
2023-04-22T19:42:46.313Z,87.66
2023-04-22T19:45:12.682Z,87.67
2023-04-22T19:47:39.123Z,87.72
2023-04-22T19:50:05.506Z,87.72
2023-04-22T19:52:32.074Z,87.71
2023-04-22T19:54:58.427Z,87.66
2023-04-22T19:57:24.759Z,87.64
2023-04-22T19:59:51.104Z,87.68
2023-04-22T20:02:17.494Z,87.66
2023-04-22T20:04:44.188Z,87.64
2023-04-22T20:07:10.617Z,87.63
2023-04-22T20:09:36.986Z,87.72
2023-04-22T20:12:03.351Z,87.68
2023-04-22T20:14:29.695Z,87.67
2023-04-22T20:16:56.048Z,87.66
2023-04-22T20:19:22.397Z,87.65
2023-04-22T20:21:48.959Z,87.63
2023-04-22T20:24:15.306Z,87.58
2023-04-22T20:26:41.663Z,87.62
2023-04-22T20:29:08.068Z,87.61
2023-04-22T20:31:34.453Z,87.56
2023-04-22T20:34:00.836Z,87.65
2023-04-22T20:36:27.191Z,87.57
2023-04-22T20:38:53.541Z,87.62
2023-04-22T20:41:19.890Z,87.62
2023-04-22T20:43:46.363Z,87.63
2023-04-22T20:46:12.998Z,87.57
2023-04-22T20:48:39.384Z,87.59
2023-04-22T20:51:05.735Z,87.60
2023-04-22T20:53:32.081Z,87.62
2023-04-22T20:55:58.639Z,87.71
2023-04-22T20:58:24.987Z,87.69
2023-04-22T21:00:51.372Z,87.63
2023-04-22T21:03:18.104Z,87.54
2023-04-22T21:05:46.612Z,87.68
2023-04-22T21:08:13.271Z,87.70
2023-04-22T21:10:39.637Z,87.71
2023-04-22T21:13:06.010Z,87.75
2023-04-22T21:15:32.378Z,87.73
2023-04-22T21:17:58.820Z,87.72
2023-04-22T21:20:25.209Z,87.70
2023-04-22T21:22:51.571Z,87.72
2023-04-22T21:25:17.916Z,87.72
2023-04-22T21:27:44.270Z,87.72
2023-04-22T21:30:10.613Z,87.83
2023-04-22T21:32:36.998Z,87.81
2023-04-22T21:35:03.641Z,87.81
2023-04-22T21:37:30.091Z,87.78
2023-04-22T21:39:56.435Z,87.82
2023-04-22T21:42:22.783Z,87.81
2023-04-22T21:44:49.146Z,87.81
2023-04-22T21:47:15.497Z,87.85
2023-04-22T21:49:41.842Z,87.86
2023-04-22T21:52:08.402Z,87.83
2023-04-22T21:54:34.778Z,87.83
2023-04-22T21:57:01.153Z,87.85
2023-04-22T21:59:27.538Z,87.88
2023-04-22T22:01:53.983Z,87.81
2023-04-22T22:04:20.525Z,87.85
2023-04-22T22:06:46.999Z,87.82
2023-04-22T22:09:13.600Z,87.81
2023-04-22T22:11:39.991Z,87.84
2023-04-22T22:14:06.381Z,87.83
2023-04-22T22:16:32.798Z,87.81
2023-04-22T22:18:59.184Z,87.81
2023-04-22T22:21:25.577Z,87.93
2023-04-22T22:23:51.950Z,87.85
2023-04-22T22:26:18.529Z,87.83
2023-04-22T22:28:44.896Z,87.81
2023-04-22T22:31:11.530Z,87.76
2023-04-22T22:33:37.888Z,87.87
2023-04-22T22:36:04.267Z,87.87
2023-04-22T22:38:30.642Z,87.85
2023-04-22T22:40:57.038Z,87.91
2023-04-22T22:43:23.647Z,87.88
2023-04-22T22:45:50.079Z,87.85
2023-04-22T22:48:16.488Z,87.87
2023-04-22T22:50:42.830Z,87.94
2023-04-22T22:53:09.171Z,87.91
2023-04-22T22:55:35.514Z,87.95
2023-04-22T22:58:01.879Z,87.86
2023-04-22T23:00:28.457Z,87.87
2023-04-22T23:02:54.975Z,87.77
2023-04-22T23:05:21.600Z,87.82
2023-04-22T23:07:47.979Z,87.88
2023-04-22T23:10:14.338Z,87.87
2023-04-22T23:12:40.920Z,87.90
2023-04-22T23:15:07.284Z,87.92
2023-04-22T23:17:33.901Z,87.93
2023-04-22T23:20:00.284Z,87.88
2023-04-22T23:22:26.642Z,87.93
2023-04-22T23:24:53.019Z,87.81
2023-04-22T23:27:19.382Z,87.88
2023-04-22T23:29:45.981Z,87.87
2023-04-22T23:32:12.374Z,87.92
2023-04-22T23:34:39.090Z,87.91
2023-04-22T23:37:05.934Z,87.87
2023-04-22T23:39:32.306Z,87.88
2023-04-22T23:41:58.668Z,87.89
2023-04-22T23:44:25.048Z,87.93
2023-04-22T23:46:51.426Z,87.87
2023-04-22T23:49:17.790Z,87.84
2023-04-22T23:51:44.158Z,87.90
2023-04-22T23:54:10.773Z,87.93
2023-04-22T23:56:37.137Z,87.87
2023-04-22T23:59:03.517Z,87.89
